CYZH

Details ICAO CYZH (YZH)
Name SLAVE LAKE
Region Canada
Timezone America/Edmonton (UTC-6.0)
Plans Departing 12
Arriving 12
Stats Elevation 1,912 ft / 583 m (AMSL)
Location 55.293303° -114.778310°
Runways 1
Magnetic Variation 15.211° E
Sunrise 2018-05-21 11:21:06 UTC / 2018-05-21 05:21:06 Local
Sunset 2018-05-22 03:53:13 UTC / 2018-05-21 21:53:13 Local
Advertisement - Login to hide

Runways

ID Width Length Bearing (true) Bearing (mag) Surface Threshold Offset Overrun Length
10 100 ft / 30 m 5,535 ft / 1,687 m 114.74° 99.53° Asphalt 0 ft / 0 m 0 ft / 0 m
28 100 ft / 30 m 5,535 ft / 1,687 m 294.76° 279.55° Asphalt 557 ft / 170 m 0 ft / 0 m

Map

Weather


0- 5 10 15 20 25 30 35+ Temperature / ° C

Clouds and Precipitation
Forecast for 2018-05-21 18:00 UTC. Updated 35 minutes ago

Ground ~20,000 ft ~40,000 ft Winds

METAR

CYZH 211500Z AUTO 35006KT 9SM CLR 12/07 A2982 RMK SLP103 DENSITY ALT 2100FT

TAF

TAF CYZH 211238Z 2113/2201 32005KT P6SM FEW250 BECMG 2115/2117 27012G22KT FM212000 28015KT P6SM FEW060 BECMG 2123/2201 28010KT RMK FCST BASED ON AUTO OBS. NXT FCST BY 211900Z

Frequencies

Unicom 123.20 MHz CTAF
Warning: Do not use this data for real-world aviation or navigation. No guarantee of current accuracy is given.